sensor_id;sensor_type;location;lat;lon;timestamp;P1;durP1;ratioP1;P2;durP2;ratioP2
36963;SDS011;22878;48.616;35.326;2023-04-25T00:01:28;27.80;;;13.30;;
36963;SDS011;22878;48.616;35.326;2023-04-25T00:03:53;28.30;;;14.00;;
36963;SDS011;22878;48.616;35.326;2023-04-25T00:06:19;31.80;;;14.30;;
36963;SDS011;22878;48.616;35.326;2023-04-25T00:08:45;33.30;;;13.90;;
36963;SDS011;22878;48.616;35.326;2023-04-25T00:11:10;32.20;;;14.80;;
36963;SDS011;22878;48.616;35.326;2023-04-25T00:13:36;26.90;;;13.30;;
36963;SDS011;22878;48.616;35.326;2023-04-25T00:16:01;26.70;;;12.40;;
36963;SDS011;22878;48.616;35.326;2023-04-25T00:18:27;21.00;;;11.90;;
36963;SDS011;22878;48.616;35.326;2023-04-25T00:20:54;26.30;;;12.70;;
36963;SDS011;22878;48.616;35.326;2023-04-25T00:23:20;21.40;;;10.50;;
36963;SDS011;22878;48.616;35.326;2023-04-25T00:25:47;19.40;;;9.50;;
36963;SDS011;22878;48.616;35.326;2023-04-25T00:28:14;23.10;;;10.80;;
36963;SDS011;22878;48.616;35.326;2023-04-25T00:30:40;23.60;;;11.70;;
36963;SDS011;22878;48.616;35.326;2023-04-25T00:33:06;22.70;;;11.20;;
36963;SDS011;22878;48.616;35.326;2023-04-25T00:35:32;26.10;;;12.90;;
36963;SDS011;22878;48.616;35.326;2023-04-25T00:37:58;25.90;;;12.30;;
36963;SDS011;22878;48.616;35.326;2023-04-25T00:40:23;23.30;;;13.40;;
36963;SDS011;22878;48.616;35.326;2023-04-25T00:42:49;27.10;;;12.10;;
36963;SDS011;22878;48.616;35.326;2023-04-25T00:45:17;27.20;;;11.60;;
36963;SDS011;22878;48.616;35.326;2023-04-25T00:47:42;24.00;;;11.60;;
36963;SDS011;22878;48.616;35.326;2023-04-25T00:50:08;24.40;;;11.40;;
36963;SDS011;22878;48.616;35.326;2023-04-25T00:52:35;20.80;;;11.10;;
36963;SDS011;22878;48.616;35.326;2023-04-25T00:55:02;22.70;;;10.80;;
36963;SDS011;22878;48.616;35.326;2023-04-25T00:57:28;23.20;;;11.10;;
36963;SDS011;22878;48.616;35.326;2023-04-25T00:59:54;18.00;;;10.00;;
36963;SDS011;22878;48.616;35.326;2023-04-25T01:02:20;21.90;;;10.70;;
36963;SDS011;22878;48.616;35.326;2023-04-25T01:04:47;27.20;;;13.90;;
36963;SDS011;22878;48.616;35.326;2023-04-25T01:07:13;27.60;;;13.00;;
36963;SDS011;22878;48.616;35.326;2023-04-25T01:09:40;30.10;;;13.90;;
36963;SDS011;22878;48.616;35.326;2023-04-25T01:12:06;32.70;;;15.60;;
36963;SDS011;22878;48.616;35.326;2023-04-25T01:14:31;30.90;;;13.90;;
36963;SDS011;22878;48.616;35.326;2023-04-25T01:16:57;23.80;;;12.30;;
36963;SDS011;22878;48.616;35.326;2023-04-25T01:19:23;27.20;;;12.70;;
36963;SDS011;22878;48.616;35.326;2023-04-25T01:21:49;25.20;;;13.30;;
36963;SDS011;22878;48.616;35.326;2023-04-25T01:24:15;28.90;;;12.50;;
36963;SDS011;22878;48.616;35.326;2023-04-25T01:26:41;21.50;;;12.60;;
36963;SDS011;22878;48.616;35.326;2023-04-25T01:31:40;22.90;;;11.60;;
36963;SDS011;22878;48.616;35.326;2023-04-25T01:34:06;22.50;;;12.50;;
36963;SDS011;22878;48.616;35.326;2023-04-25T01:36:32;23.00;;;10.90;;
36963;SDS011;22878;48.616;35.326;2023-04-25T01:38:58;27.00;;;12.20;;
36963;SDS011;22878;48.616;35.326;2023-04-25T01:41:25;24.90;;;11.60;;
36963;SDS011;22878;48.616;35.326;2023-04-25T01:43:51;29.00;;;11.70;;
36963;SDS011;22878;48.616;35.326;2023-04-25T01:46:17;24.10;;;12.10;;
36963;SDS011;22878;48.616;35.326;2023-04-25T01:48:43;26.50;;;12.80;;
36963;SDS011;22878;48.616;35.326;2023-04-25T01:51:08;30.30;;;14.90;;
36963;SDS011;22878;48.616;35.326;2023-04-25T01:53:34;27.60;;;15.30;;
36963;SDS011;22878;48.616;35.326;2023-04-25T01:56:00;25.30;;;14.50;;
36963;SDS011;22878;48.616;35.326;2023-04-25T01:58:25;27.70;;;13.80;;
36963;SDS011;22878;48.616;35.326;2023-04-25T02:00:51;26.70;;;13.50;;
36963;SDS011;22878;48.616;35.326;2023-04-25T02:03:16;24.90;;;13.20;;
36963;SDS011;22878;48.616;35.326;2023-04-25T02:05:42;27.80;;;12.60;;
36963;SDS011;22878;48.616;35.326;2023-04-25T02:08:08;26.40;;;12.90;;
36963;SDS011;22878;48.616;35.326;2023-04-25T02:10:34;23.20;;;13.10;;
36963;SDS011;22878;48.616;35.326;2023-04-25T02:13:00;22.90;;;12.70;;
36963;SDS011;22878;48.616;35.326;2023-04-25T02:15:26;21.50;;;12.20;;
36963;SDS011;22878;48.616;35.326;2023-04-25T02:17:52;24.00;;;13.10;;
36963;SDS011;22878;48.616;35.326;2023-04-25T02:20:18;23.60;;;12.10;;
36963;SDS011;22878;48.616;35.326;2023-04-25T02:22:45;26.90;;;12.90;;
36963;SDS011;22878;48.616;35.326;2023-04-25T02:25:11;23.80;;;12.50;;
36963;SDS011;22878;48.616;35.326;2023-04-25T02:27:37;23.50;;;11.70;;
36963;SDS011;22878;48.616;35.326;2023-04-25T02:30:03;23.50;;;11.90;;
36963;SDS011;22878;48.616;35.326;2023-04-25T02:32:29;23.00;;;12.50;;
36963;SDS011;22878;48.616;35.326;2023-04-25T02:34:55;23.40;;;11.00;;
36963;SDS011;22878;48.616;35.326;2023-04-25T02:37:23;22.70;;;12.40;;
36963;SDS011;22878;48.616;35.326;2023-04-25T02:39:49;27.30;;;14.60;;
36963;SDS011;22878;48.616;35.326;2023-04-25T02:42:14;26.80;;;13.00;;
36963;SDS011;22878;48.616;35.326;2023-04-25T02:44:40;22.90;;;12.50;;
36963;SDS011;22878;48.616;35.326;2023-04-25T02:47:06;24.90;;;13.10;;
36963;SDS011;22878;48.616;35.326;2023-04-25T02:49:31;24.50;;;13.00;;
36963;SDS011;22878;48.616;35.326;2023-04-25T02:51:57;28.70;;;14.00;;
36963;SDS011;22878;48.616;35.326;2023-04-25T02:54:22;26.50;;;14.70;;
36963;SDS011;22878;48.616;35.326;2023-04-25T02:56:48;25.10;;;13.70;;
36963;SDS011;22878;48.616;35.326;2023-04-25T02:59:13;25.00;;;12.80;;
36963;SDS011;22878;48.616;35.326;2023-04-25T03:01:39;27.10;;;12.80;;
36963;SDS011;22878;48.616;35.326;2023-04-25T03:04:04;26.30;;;12.70;;
36963;SDS011;22878;48.616;35.326;2023-04-25T03:06:30;28.40;;;13.00;;
36963;SDS011;22878;48.616;35.326;2023-04-25T03:08:55;26.20;;;12.40;;
36963;SDS011;22878;48.616;35.326;2023-04-25T03:11:21;29.70;;;12.80;;
36963;SDS011;22878;48.616;35.326;2023-04-25T03:13:46;25.50;;;13.00;;
36963;SDS011;22878;48.616;35.326;2023-04-25T03:16:12;26.10;;;13.70;;
36963;SDS011;22878;48.616;35.326;2023-04-25T03:18:37;29.00;;;12.80;;
36963;SDS011;22878;48.616;35.326;2023-04-25T03:21:03;24.00;;;12.40;;
36963;SDS011;22878;48.616;35.326;2023-04-25T03:23:28;22.30;;;11.80;;
36963;SDS011;22878;48.616;35.326;2023-04-25T03:25:54;25.00;;;11.90;;
36963;SDS011;22878;48.616;35.326;2023-04-25T03:28:20;25.50;;;12.90;;
36963;SDS011;22878;48.616;35.326;2023-04-25T03:30:45;26.20;;;12.20;;
36963;SDS011;22878;48.616;35.326;2023-04-25T03:33:11;28.90;;;11.70;;
36963;SDS011;22878;48.616;35.326;2023-04-25T03:35:36;25.40;;;11.70;;
36963;SDS011;22878;48.616;35.326;2023-04-25T03:38:01;24.10;;;11.60;;
36963;SDS011;22878;48.616;35.326;2023-04-25T03:40:27;26.70;;;11.50;;
36963;SDS011;22878;48.616;35.326;2023-04-25T03:42:52;22.90;;;10.50;;
36963;SDS011;22878;48.616;35.326;2023-04-25T03:45:18;21.20;;;10.60;;
36963;SDS011;22878;48.616;35.326;2023-04-25T03:47:44;24.40;;;10.30;;
36963;SDS011;22878;48.616;35.326;2023-04-25T03:50:09;22.20;;;10.50;;
36963;SDS011;22878;48.616;35.326;2023-04-25T03:52:35;18.80;;;9.60;;
36963;SDS011;22878;48.616;35.326;2023-04-25T03:55:00;16.30;;;8.70;;
36963;SDS011;22878;48.616;35.326;2023-04-25T03:57:26;19.80;;;8.70;;
36963;SDS011;22878;48.616;35.326;2023-04-25T03:59:51;15.00;;;8.40;;
36963;SDS011;22878;48.616;35.326;2023-04-25T04:02:17;18.30;;;8.30;;
36963;SDS011;22878;48.616;35.326;2023-04-25T04:04:43;14.60;;;8.50;;
36963;SDS011;22878;48.616;35.326;2023-04-25T04:07:09;19.30;;;8.30;;
36963;SDS011;22878;48.616;35.326;2023-04-25T04:09:35;17.70;;;8.80;;
36963;SDS011;22878;48.616;35.326;2023-04-25T04:12:00;16.40;;;7.70;;
36963;SDS011;22878;48.616;35.326;2023-04-25T04:14:26;21.30;;;8.60;;
36963;SDS011;22878;48.616;35.326;2023-04-25T04:16:52;17.70;;;8.00;;
36963;SDS011;22878;48.616;35.326;2023-04-25T04:19:17;20.60;;;8.20;;
36963;SDS011;22878;48.616;35.326;2023-04-25T04:21:43;17.80;;;8.10;;
36963;SDS011;22878;48.616;35.326;2023-04-25T04:24:08;16.90;;;7.70;;
36963;SDS011;22878;48.616;35.326;2023-04-25T04:26:35;14.40;;;7.00;;
36963;SDS011;22878;48.616;35.326;2023-04-25T04:29:02;13.60;;;6.40;;
36963;SDS011;22878;48.616;35.326;2023-04-25T04:31:27;14.80;;;6.80;;
36963;SDS011;22878;48.616;35.326;2023-04-25T04:33:55;12.20;;;6.60;;
36963;SDS011;22878;48.616;35.326;2023-04-25T04:36:20;15.60;;;6.50;;
36963;SDS011;22878;48.616;35.326;2023-04-25T04:38:48;9.90;;;6.20;;
36963;SDS011;22878;48.616;35.326;2023-04-25T04:41:13;12.70;;;5.80;;
36963;SDS011;22878;48.616;35.326;2023-04-25T04:43:39;13.30;;;5.50;;
36963;SDS011;22878;48.616;35.326;2023-04-25T04:46:05;17.30;;;5.20;;
36963;SDS011;22878;48.616;35.326;2023-04-25T04:48:31;7.60;;;4.10;;
36963;SDS011;22878;48.616;35.326;2023-04-25T04:51:00;13.60;;;4.50;;
36963;SDS011;22878;48.616;35.326;2023-04-25T04:53:26;9.00;;;4.60;;
36963;SDS011;22878;48.616;35.326;2023-04-25T04:55:52;8.30;;;4.40;;
36963;SDS011;22878;48.616;35.326;2023-04-25T04:58:18;9.40;;;4.60;;
36963;SDS011;22878;48.616;35.326;2023-04-25T05:00:43;8.20;;;3.70;;
36963;SDS011;22878;48.616;35.326;2023-04-25T05:03:09;12.10;;;4.00;;
36963;SDS011;22878;48.616;35.326;2023-04-25T05:05:36;11.40;;;4.40;;
36963;SDS011;22878;48.616;35.326;2023-04-25T05:08:04;11.20;;;3.50;;
36963;SDS011;22878;48.616;35.326;2023-04-25T05:10:31;8.20;;;3.90;;
36963;SDS011;22878;48.616;35.326;2023-04-25T05:12:56;8.80;;;4.00;;
36963;SDS011;22878;48.616;35.326;2023-04-25T05:15:22;11.20;;;4.40;;
36963;SDS011;22878;48.616;35.326;2023-04-25T05:17:47;10.00;;;3.50;;
36963;SDS011;22878;48.616;35.326;2023-04-25T05:20:13;7.30;;;3.30;;
36963;SDS011;22878;48.616;35.326;2023-04-25T05:22:39;9.20;;;4.00;;
36963;SDS011;22878;48.616;35.326;2023-04-25T05:25:06;8.80;;;3.50;;
36963;SDS011;22878;48.616;35.326;2023-04-25T05:27:32;9.50;;;4.40;;
36963;SDS011;22878;48.616;35.326;2023-04-25T05:29:58;9.20;;;4.10;;
36963;SDS011;22878;48.616;35.326;2023-04-25T05:32:27;10.40;;;3.90;;
36963;SDS011;22878;48.616;35.326;2023-04-25T05:34:52;9.90;;;4.00;;
36963;SDS011;22878;48.616;35.326;2023-04-25T05:37:18;9.60;;;4.40;;
36963;SDS011;22878;48.616;35.326;2023-04-25T05:39:43;10.00;;;4.30;;
36963;SDS011;22878;48.616;35.326;2023-04-25T05:42:09;8.90;;;4.30;;
36963;SDS011;22878;48.616;35.326;2023-04-25T05:44:35;8.40;;;3.60;;
36963;SDS011;22878;48.616;35.326;2023-04-25T05:47:00;13.30;;;3.80;;
36963;SDS011;22878;48.616;35.326;2023-04-25T05:49:26;10.30;;;3.90;;
36963;SDS011;22878;48.616;35.326;2023-04-25T05:51:51;8.60;;;3.90;;
36963;SDS011;22878;48.616;35.326;2023-04-25T05:54:17;11.10;;;3.90;;
36963;SDS011;22878;48.616;35.326;2023-04-25T05:56:43;8.10;;;4.10;;
36963;SDS011;22878;48.616;35.326;2023-04-25T05:59:08;11.90;;;4.00;;
36963;SDS011;22878;48.616;35.326;2023-04-25T06:01:34;11.00;;;4.20;;
36963;SDS011;22878;48.616;35.326;2023-04-25T06:04:00;9.70;;;4.00;;
36963;SDS011;22878;48.616;35.326;2023-04-25T06:06:26;16.00;;;4.60;;
36963;SDS011;22878;48.616;35.326;2023-04-25T06:08:52;12.00;;;4.50;;
36963;SDS011;22878;48.616;35.326;2023-04-25T06:11:18;9.30;;;4.30;;
36963;SDS011;22878;48.616;35.326;2023-04-25T06:13:45;13.00;;;4.40;;
36963;SDS011;22878;48.616;35.326;2023-04-25T06:16:11;14.50;;;5.20;;
36963;SDS011;22878;48.616;35.326;2023-04-25T06:18:36;14.10;;;5.40;;
36963;SDS011;22878;48.616;35.326;2023-04-25T06:21:02;18.00;;;5.20;;
36963;SDS011;22878;48.616;35.326;2023-04-25T06:23:27;15.70;;;5.10;;
36963;SDS011;22878;48.616;35.326;2023-04-25T06:25:53;18.80;;;5.70;;
36963;SDS011;22878;48.616;35.326;2023-04-25T06:28:18;21.10;;;5.60;;
36963;SDS011;22878;48.616;35.326;2023-04-25T06:30:44;15.70;;;5.60;;
36963;SDS011;22878;48.616;35.326;2023-04-25T06:33:10;17.10;;;5.10;;
36963;SDS011;22878;48.616;35.326;2023-04-25T06:35:35;16.40;;;5.40;;
36963;SDS011;22878;48.616;35.326;2023-04-25T06:38:01;22.30;;;7.10;;
36963;SDS011;22878;48.616;35.326;2023-04-25T06:40:27;15.90;;;7.00;;
36963;SDS011;22878;48.616;35.326;2023-04-25T06:42:52;19.80;;;7.10;;
36963;SDS011;22878;48.616;35.326;2023-04-25T06:45:18;19.00;;;7.70;;
36963;SDS011;22878;48.616;35.326;2023-04-25T06:47:43;22.90;;;7.40;;
36963;SDS011;22878;48.616;35.326;2023-04-25T06:50:09;17.40;;;7.00;;
36963;SDS011;22878;48.616;35.326;2023-04-25T06:52:35;15.90;;;6.80;;
36963;SDS011;22878;48.616;35.326;2023-04-25T06:55:01;13.50;;;5.40;;
36963;SDS011;22878;48.616;35.326;2023-04-25T06:57:27;22.60;;;9.00;;
36963;SDS011;22878;48.616;35.326;2023-04-25T06:59:53;17.40;;;6.90;;
36963;SDS011;22878;48.616;35.326;2023-04-25T07:02:19;19.60;;;6.50;;
36963;SDS011;22878;48.616;35.326;2023-04-25T07:04:46;19.10;;;7.60;;
36963;SDS011;22878;48.616;35.326;2023-04-25T07:07:12;19.90;;;7.50;;
36963;SDS011;22878;48.616;35.326;2023-04-25T07:09:37;20.70;;;8.50;;
36963;SDS011;22878;48.616;35.326;2023-04-25T07:12:03;25.10;;;8.10;;
36963;SDS011;22878;48.616;35.326;2023-04-25T07:14:29;24.30;;;8.60;;
36963;SDS011;22878;48.616;35.326;2023-04-25T07:16:55;17.40;;;7.60;;
36963;SDS011;22878;48.616;35.326;2023-04-25T07:19:22;135.00;;;52.40;;
36963;SDS011;22878;48.616;35.326;2023-04-25T07:21:51;36.40;;;14.60;;
36963;SDS011;22878;48.616;35.326;2023-04-25T07:24:17;18.30;;;7.80;;
36963;SDS011;22878;48.616;35.326;2023-04-25T07:26:42;16.30;;;7.10;;
36963;SDS011;22878;48.616;35.326;2023-04-25T07:29:08;16.30;;;6.00;;
36963;SDS011;22878;48.616;35.326;2023-04-25T07:31:34;16.30;;;4.60;;
36963;SDS011;22878;48.616;35.326;2023-04-25T07:34:00;11.30;;;3.70;;
36963;SDS011;22878;48.616;35.326;2023-04-25T07:36:26;9.90;;;4.00;;
36963;SDS011;22878;48.616;35.326;2023-04-25T07:38:52;10.10;;;4.20;;
36963;SDS011;22878;48.616;35.326;2023-04-25T07:41:20;7.20;;;3.10;;
36963;SDS011;22878;48.616;35.326;2023-04-25T07:43:46;6.50;;;3.30;;
36963;SDS011;22878;48.616;35.326;2023-04-25T07:46:11;12.60;;;3.60;;
36963;SDS011;22878;48.616;35.326;2023-04-25T07:48:37;4.00;;;2.70;;
36963;SDS011;22878;48.616;35.326;2023-04-25T07:51:03;5.50;;;3.00;;
36963;SDS011;22878;48.616;35.326;2023-04-25T07:53:30;6.10;;;3.20;;
36963;SDS011;22878;48.616;35.326;2023-04-25T07:55:57;4.30;;;2.40;;
36963;SDS011;22878;48.616;35.326;2023-04-25T07:58:22;6.10;;;2.70;;
36963;SDS011;22878;48.616;35.326;2023-04-25T08:00:48;6.60;;;2.90;;
36963;SDS011;22878;48.616;35.326;2023-04-25T08:03:14;7.40;;;3.10;;
36963;SDS011;22878;48.616;35.326;2023-04-25T08:05:39;9.20;;;3.10;;
36963;SDS011;22878;48.616;35.326;2023-04-25T08:08:05;9.80;;;3.50;;
36963;SDS011;22878;48.616;35.326;2023-04-25T08:10:32;10.60;;;3.90;;
36963;SDS011;22878;48.616;35.326;2023-04-25T08:12:58;8.50;;;3.90;;
36963;SDS011;22878;48.616;35.326;2023-04-25T08:15:24;9.50;;;4.10;;
36963;SDS011;22878;48.616;35.326;2023-04-25T08:17:50;11.90;;;3.50;;
36963;SDS011;22878;48.616;35.326;2023-04-25T08:20:16;9.30;;;3.30;;
36963;SDS011;22878;48.616;35.326;2023-04-25T08:22:42;9.40;;;3.90;;
36963;SDS011;22878;48.616;35.326;2023-04-25T08:25:08;9.50;;;4.20;;
36963;SDS011;22878;48.616;35.326;2023-04-25T08:27:33;11.20;;;4.70;;
36963;SDS011;22878;48.616;35.326;2023-04-25T08:29:59;10.90;;;4.50;;
36963;SDS011;22878;48.616;35.326;2023-04-25T08:32:25;14.70;;;4.40;;
36963;SDS011;22878;48.616;35.326;2023-04-25T08:34:51;17.70;;;4.60;;
36963;SDS011;22878;48.616;35.326;2023-04-25T08:37:19;15.40;;;4.30;;
36963;SDS011;22878;48.616;35.326;2023-04-25T08:39:49;12.50;;;3.80;;
36963;SDS011;22878;48.616;35.326;2023-04-25T08:42:17;8.70;;;3.40;;
36963;SDS011;22878;48.616;35.326;2023-04-25T08:44:43;7.00;;;3.50;;
36963;SDS011;22878;48.616;35.326;2023-04-25T08:47:13;14.60;;;4.20;;
36963;SDS011;22878;48.616;35.326;2023-04-25T08:49:39;11.20;;;3.50;;
36963;SDS011;22878;48.616;35.326;2023-04-25T08:52:11;12.10;;;3.70;;
36963;SDS011;22878;48.616;35.326;2023-04-25T08:54:39;21.90;;;4.80;;
36963;SDS011;22878;48.616;35.326;2023-04-25T08:57:09;13.50;;;4.50;;
36963;SDS011;22878;48.616;35.326;2023-04-25T08:59:35;7.30;;;2.70;;
36963;SDS011;22878;48.616;35.326;2023-04-25T09:02:03;6.10;;;3.30;;
36963;SDS011;22878;48.616;35.326;2023-04-25T09:04:31;12.30;;;4.30;;
36963;SDS011;22878;48.616;35.326;2023-04-25T09:06:57;14.60;;;4.30;;
36963;SDS011;22878;48.616;35.326;2023-04-25T09:09:23;8.30;;;4.10;;
36963;SDS011;22878;48.616;35.326;2023-04-25T09:11:49;9.70;;;4.00;;
36963;SDS011;22878;48.616;35.326;2023-04-25T09:17:00;11.70;;;4.00;;
36963;SDS011;22878;48.616;35.326;2023-04-25T09:19:31;9.10;;;3.80;;
36963;SDS011;22878;48.616;35.326;2023-04-25T09:22:01;4.60;;;2.60;;
36963;SDS011;22878;48.616;35.326;2023-04-25T09:24:32;9.60;;;3.70;;
36963;SDS011;22878;48.616;35.326;2023-04-25T09:27:05;6.80;;;2.90;;
36963;SDS011;22878;48.616;35.326;2023-04-25T09:29:39;5.50;;;3.30;;
36963;SDS011;22878;48.616;35.326;2023-04-25T09:32:22;7.90;;;3.50;;
36963;SDS011;22878;48.616;35.326;2023-04-25T09:34:50;6.50;;;3.00;;
36963;SDS011;22878;48.616;35.326;2023-04-25T09:37:20;7.40;;;2.80;;
36963;SDS011;22878;48.616;35.326;2023-04-25T09:39:49;8.40;;;3.80;;
36963;SDS011;22878;48.616;35.326;2023-04-25T09:42:21;8.80;;;3.80;;
36963;SDS011;22878;48.616;35.326;2023-04-25T09:44:53;8.40;;;3.70;;
36963;SDS011;22878;48.616;35.326;2023-04-25T09:47:19;3.90;;;2.50;;
36963;SDS011;22878;48.616;35.326;2023-04-25T09:49:47;6.40;;;2.60;;
36963;SDS011;22878;48.616;35.326;2023-04-25T09:52:19;7.10;;;3.30;;
36963;SDS011;22878;48.616;35.326;2023-04-25T09:54:46;3.80;;;2.80;;
36963;SDS011;22878;48.616;35.326;2023-04-25T09:57:16;9.20;;;3.70;;
36963;SDS011;22878;48.616;35.326;2023-04-25T09:59:47;4.60;;;2.80;;
36963;SDS011;22878;48.616;35.326;2023-04-25T10:02:15;8.70;;;2.30;;
36963;SDS011;22878;48.616;35.326;2023-04-25T10:04:49;4.70;;;2.60;;
36963;SDS011;22878;48.616;35.326;2023-04-25T10:07:30;4.50;;;2.60;;
36963;SDS011;22878;48.616;35.326;2023-04-25T10:10:02;2.80;;;1.90;;
36963;SDS011;22878;48.616;35.326;2023-04-25T10:12:30;7.40;;;2.90;;
36963;SDS011;22878;48.616;35.326;2023-04-25T10:14:59;5.00;;;2.20;;
36963;SDS011;22878;48.616;35.326;2023-04-25T10:17:28;3.80;;;2.20;;
36963;SDS011;22878;48.616;35.326;2023-04-25T10:19:54;4.10;;;1.90;;
36963;SDS011;22878;48.616;35.326;2023-04-25T10:22:22;4.90;;;2.40;;
36963;SDS011;22878;48.616;35.326;2023-04-25T10:24:54;5.40;;;2.00;;
36963;SDS011;22878;48.616;35.326;2023-04-25T10:27:21;4.50;;;2.00;;
36963;SDS011;22878;48.616;35.326;2023-04-25T10:29:59;5.00;;;2.10;;
36963;SDS011;22878;48.616;35.326;2023-04-25T10:32:30;7.00;;;3.20;;
36963;SDS011;22878;48.616;35.326;2023-04-25T10:34:56;4.20;;;2.10;;
36963;SDS011;22878;48.616;35.326;2023-04-25T10:37:22;3.40;;;2.00;;
36963;SDS011;22878;48.616;35.326;2023-04-25T10:39:49;4.00;;;2.10;;
36963;SDS011;22878;48.616;35.326;2023-04-25T10:42:18;4.10;;;2.00;;
36963;SDS011;22878;48.616;35.326;2023-04-25T10:44:47;5.10;;;2.60;;
36963;SDS011;22878;48.616;35.326;2023-04-25T10:47:36;4.20;;;2.10;;
36963;SDS011;22878;48.616;35.326;2023-04-25T10:50:10;5.90;;;2.60;;
36963;SDS011;22878;48.616;35.326;2023-04-25T10:52:36;5.40;;;2.40;;
36963;SDS011;22878;48.616;35.326;2023-04-25T10:55:04;3.60;;;2.20;;
36963;SDS011;22878;48.616;35.326;2023-04-25T11:02:30;7.30;;;1.90;;
36963;SDS011;22878;48.616;35.326;2023-04-25T11:04:56;5.00;;;2.40;;
36963;SDS011;22878;48.616;35.326;2023-04-25T11:07:33;5.50;;;2.40;;
36963;SDS011;22878;48.616;35.326;2023-04-25T11:10:04;3.20;;;2.20;;
36963;SDS011;22878;48.616;35.326;2023-04-25T11:12:33;3.80;;;2.50;;
36963;SDS011;22878;48.616;35.326;2023-04-25T11:14:59;9.90;;;2.90;;
36963;SDS011;22878;48.616;35.326;2023-04-25T11:17:28;6.20;;;2.50;;
36963;SDS011;22878;48.616;35.326;2023-04-25T11:19:54;5.10;;;2.10;;
36963;SDS011;22878;48.616;35.326;2023-04-25T11:22:21;3.60;;;2.30;;
36963;SDS011;22878;48.616;35.326;2023-04-25T11:24:48;4.10;;;2.40;;
36963;SDS011;22878;48.616;35.326;2023-04-25T11:27:13;5.60;;;2.30;;
36963;SDS011;22878;48.616;35.326;2023-04-25T11:29:40;5.30;;;2.00;;
36963;SDS011;22878;48.616;35.326;2023-04-25T11:32:05;5.00;;;1.80;;
36963;SDS011;22878;48.616;35.326;2023-04-25T11:34:32;4.30;;;1.90;;
36963;SDS011;22878;48.616;35.326;2023-04-25T11:36:58;4.50;;;2.10;;
36963;SDS011;22878;48.616;35.326;2023-04-25T11:39:26;11.00;;;2.80;;
36963;SDS011;22878;48.616;35.326;2023-04-25T11:41:52;4.10;;;2.10;;
36963;SDS011;22878;48.616;35.326;2023-04-25T11:44:18;6.30;;;2.20;;
36963;SDS011;22878;48.616;35.326;2023-04-25T11:46:45;7.60;;;2.90;;
36963;SDS011;22878;48.616;35.326;2023-04-25T11:49:11;4.80;;;2.70;;
36963;SDS011;22878;48.616;35.326;2023-04-25T11:51:38;4.30;;;2.10;;
36963;SDS011;22878;48.616;35.326;2023-04-25T11:54:04;8.10;;;2.10;;
36963;SDS011;22878;48.616;35.326;2023-04-25T11:56:30;3.50;;;2.20;;
36963;SDS011;22878;48.616;35.326;2023-04-25T11:58:56;2.80;;;2.10;;
36963;SDS011;22878;48.616;35.326;2023-04-25T12:03:56;4.50;;;2.40;;
36963;SDS011;22878;48.616;35.326;2023-04-25T12:06:31;7.10;;;2.50;;
36963;SDS011;22878;48.616;35.326;2023-04-25T12:09:03;2.60;;;1.70;;
36963;SDS011;22878;48.616;35.326;2023-04-25T12:11:32;2.40;;;2.00;;
36963;SDS011;22878;48.616;35.326;2023-04-25T12:14:05;3.10;;;1.60;;
36963;SDS011;22878;48.616;35.326;2023-04-25T12:16:44;2.70;;;1.80;;
36963;SDS011;22878;48.616;35.326;2023-04-25T12:19:14;5.60;;;1.80;;
36963;SDS011;22878;48.616;35.326;2023-04-25T12:21:41;2.30;;;1.90;;
36963;SDS011;22878;48.616;35.326;2023-04-25T12:24:14;3.50;;;2.20;;
36963;SDS011;22878;48.616;35.326;2023-04-25T12:29:30;4.30;;;2.00;;
36963;SDS011;22878;48.616;35.326;2023-04-25T12:31:57;4.80;;;2.50;;
36963;SDS011;22878;48.616;35.326;2023-04-25T12:34:24;5.00;;;2.30;;
36963;SDS011;22878;48.616;35.326;2023-04-25T12:36:50;30.60;;;5.60;;
36963;SDS011;22878;48.616;35.326;2023-04-25T12:41:43;3.70;;;2.10;;
36963;SDS011;22878;48.616;35.326;2023-04-25T12:44:09;7.70;;;2.50;;
36963;SDS011;22878;48.616;35.326;2023-04-25T12:46:35;4.80;;;2.30;;
36963;SDS011;22878;48.616;35.326;2023-04-25T12:49:00;7.10;;;2.50;;
36963;SDS011;22878;48.616;35.326;2023-04-25T12:51:28;7.40;;;3.00;;
36963;SDS011;22878;48.616;35.326;2023-04-25T12:53:54;9.10;;;2.90;;
36963;SDS011;22878;48.616;35.326;2023-04-25T12:56:19;15.70;;;3.60;;
36963;SDS011;22878;48.616;35.326;2023-04-25T12:58:45;11.20;;;3.10;;
36963;SDS011;22878;48.616;35.326;2023-04-25T13:01:11;17.80;;;5.40;;
36963;SDS011;22878;48.616;35.326;2023-04-25T13:03:38;13.10;;;5.80;;
36963;SDS011;22878;48.616;35.326;2023-04-25T13:06:04;10.00;;;3.70;;
36963;SDS011;22878;48.616;35.326;2023-04-25T13:08:30;10.20;;;3.00;;
36963;SDS011;22878;48.616;35.326;2023-04-25T13:10:56;8.10;;;3.00;;
36963;SDS011;22878;48.616;35.326;2023-04-25T13:13:21;7.30;;;3.10;;
36963;SDS011;22878;48.616;35.326;2023-04-25T13:15:47;6.70;;;3.30;;
36963;SDS011;22878;48.616;35.326;2023-04-25T13:18:13;8.50;;;3.40;;
36963;SDS011;22878;48.616;35.326;2023-04-25T13:20:38;6.60;;;3.20;;
36963;SDS011;22878;48.616;35.326;2023-04-25T13:23:04;6.30;;;3.00;;
36963;SDS011;22878;48.616;35.326;2023-04-25T13:25:29;5.40;;;3.00;;
36963;SDS011;22878;48.616;35.326;2023-04-25T13:27:55;6.00;;;3.60;;
36963;SDS011;22878;48.616;35.326;2023-04-25T13:30:20;5.20;;;3.60;;
36963;SDS011;22878;48.616;35.326;2023-04-25T13:32:46;8.80;;;3.80;;
36963;SDS011;22878;48.616;35.326;2023-04-25T13:35:12;12.80;;;3.90;;
36963;SDS011;22878;48.616;35.326;2023-04-25T13:37:39;6.50;;;3.10;;
36963;SDS011;22878;48.616;35.326;2023-04-25T13:40:06;7.20;;;2.60;;
36963;SDS011;22878;48.616;35.326;2023-04-25T13:42:34;5.80;;;2.60;;
36963;SDS011;22878;48.616;35.326;2023-04-25T13:45:00;7.60;;;3.10;;
36963;SDS011;22878;48.616;35.326;2023-04-25T13:47:26;4.00;;;2.80;;
36963;SDS011;22878;48.616;35.326;2023-04-25T13:49:52;6.10;;;2.70;;
36963;SDS011;22878;48.616;35.326;2023-04-25T13:52:18;3.40;;;2.10;;
36963;SDS011;22878;48.616;35.326;2023-04-25T13:54:43;5.60;;;2.40;;
36963;SDS011;22878;48.616;35.326;2023-04-25T13:57:09;4.30;;;2.30;;
36963;SDS011;22878;48.616;35.326;2023-04-25T13:59:36;5.90;;;2.50;;
36963;SDS011;22878;48.616;35.326;2023-04-25T14:02:02;6.90;;;2.90;;
36963;SDS011;22878;48.616;35.326;2023-04-25T14:04:27;4.40;;;2.20;;
36963;SDS011;22878;48.616;35.326;2023-04-25T14:06:53;4.00;;;2.50;;
36963;SDS011;22878;48.616;35.326;2023-04-25T14:09:19;8.20;;;3.10;;
36963;SDS011;22878;48.616;35.326;2023-04-25T14:11:47;5.30;;;2.80;;
36963;SDS011;22878;48.616;35.326;2023-04-25T14:14:12;6.10;;;2.90;;
36963;SDS011;22878;48.616;35.326;2023-04-25T14:16:41;4.00;;;2.50;;
36963;SDS011;22878;48.616;35.326;2023-04-25T14:19:06;5.90;;;2.80;;
36963;SDS011;22878;48.616;35.326;2023-04-25T14:21:32;5.10;;;2.40;;
36963;SDS011;22878;48.616;35.326;2023-04-25T14:23:58;3.90;;;2.20;;
36963;SDS011;22878;48.616;35.326;2023-04-25T14:26:23;5.90;;;2.40;;
36963;SDS011;22878;48.616;35.326;2023-04-25T14:28:49;4.50;;;2.20;;
36963;SDS011;22878;48.616;35.326;2023-04-25T14:31:34;2.60;;;1.80;;
36963;SDS011;22878;48.616;35.326;2023-04-25T14:34:01;3.40;;;2.00;;
36963;SDS011;22878;48.616;35.326;2023-04-25T14:36:30;3.00;;;1.90;;
36963;SDS011;22878;48.616;35.326;2023-04-25T14:38:56;4.20;;;2.00;;